sensor_id;sensor_type;location;lat;lon;timestamp;pressure;altitude;pressure_sealevel;temperature;humidity
57779;BME280;43608;49.486;9.640;2023-01-24T00:00:30;100270.59;;;0.45;86.23
57779;BME280;43608;49.486;9.640;2023-01-24T00:01:00;100237.56;;;0.30;85.99
57779;BME280;43608;49.486;9.640;2023-01-24T00:01:31;100244.75;;;0.35;85.79
57779;BME280;43608;49.486;9.640;2023-01-24T00:02:01;100246.56;;;0.36;86.21
57779;BME280;43608;49.486;9.640;2023-01-24T00:02:32;100255.66;;;0.42;86.32
57779;BME280;43608;49.486;9.640;2023-01-24T00:03:02;100255.56;;;0.41;85.83
57779;BME280;43608;49.486;9.640;2023-01-24T00:03:33;100251.06;;;0.38;86.30
57779;BME280;43608;49.486;9.640;2023-01-24T00:04:03;100250.34;;;0.41;85.96
57779;BME280;43608;49.486;9.640;2023-01-24T00:04:34;100248.63;;;0.41;85.79
57779;BME280;43608;49.486;9.640;2023-01-24T00:05:05;100226.94;;;0.27;86.13
57779;BME280;43608;49.486;9.640;2023-01-24T00:05:35;100252.88;;;0.39;85.88
57779;BME280;43608;49.486;9.640;2023-01-24T00:06:06;100248.63;;;0.41;85.93
57779;BME280;43608;49.486;9.640;2023-01-24T00:06:36;100235.84;;;0.31;85.71
57779;BME280;43608;49.486;9.640;2023-01-24T00:07:06;100228.81;;;0.30;86.13
57779;BME280;43608;49.486;9.640;2023-01-24T00:07:37;100245.94;;;0.40;86.37
57779;BME280;43608;49.486;9.640;2023-01-24T00:08:08;100223.59;;;0.30;86.19
57779;BME280;43608;49.486;9.640;2023-01-24T00:08:39;100243.34;;;0.40;85.84
57779;BME280;43608;49.486;9.640;2023-01-24T00:09:09;100237.94;;;0.37;85.85
57779;BME280;43608;49.486;9.640;2023-01-24T00:09:39;100235.41;;;0.38;86.23
57779;BME280;43608;49.486;9.640;2023-01-24T00:10:10;100237.31;;;0.41;86.00
57779;BME280;43608;49.486;9.640;2023-01-24T00:10:41;100246.22;;;0.44;86.22
57779;BME280;43608;49.486;9.640;2023-01-24T00:11:12;100183.09;;;0.07;85.72
57779;BME280;43608;49.486;9.640;2023-01-24T00:11:43;100242.44;;;0.39;85.86
57779;BME280;43608;49.486;9.640;2023-01-24T00:12:13;100226.19;;;0.30;85.78
57779;BME280;43608;49.486;9.640;2023-01-24T00:12:44;100226.13;;;0.28;86.02
57779;BME280;43608;49.486;9.640;2023-01-24T00:13:15;100254.78;;;0.42;85.78
57779;BME280;43608;49.486;9.640;2023-01-24T00:13:46;100250.16;;;0.38;85.74
57779;BME280;43608;49.486;9.640;2023-01-24T00:14:16;100244.75;;;0.35;85.81
57779;BME280;43608;49.486;9.640;2023-01-24T00:14:47;100225.03;;;0.25;85.89
57779;BME280;43608;49.486;9.640;2023-01-24T00:15:18;100252.03;;;0.40;86.19
57779;BME280;43608;49.486;9.640;2023-01-24T00:15:48;100228.81;;;0.30;85.83
57779;BME280;43608;49.486;9.640;2023-01-24T00:16:20;100244.13;;;0.39;86.12
57779;BME280;43608;49.486;9.640;2023-01-24T00:16:50;100253.84;;;0.41;86.08
57779;BME280;43608;49.486;9.640;2023-01-24T00:17:21;100228.94;;;0.31;85.95
57779;BME280;43608;49.486;9.640;2023-01-24T00:17:52;100249.56;;;0.42;85.90
57779;BME280;43608;49.486;9.640;2023-01-24T00:18:22;100239.44;;;0.33;86.10
57779;BME280;43608;49.486;9.640;2023-01-24T00:18:52;100232.59;;;0.35;85.75
57779;BME280;43608;49.486;9.640;2023-01-24T00:19:23;100254.94;;;0.45;86.29
57779;BME280;43608;49.486;9.640;2023-01-24T00:19:53;100234.41;;;0.36;85.97
57779;BME280;43608;49.486;9.640;2023-01-24T00:20:24;100250.44;;;0.42;86.20
57779;BME280;43608;49.486;9.640;2023-01-24T00:21:06;100252.34;;;0.45;86.16
57779;BME280;43608;49.486;9.640;2023-01-24T00:21:39;100245.94;;;0.40;85.93
57779;BME280;43608;49.486;9.640;2023-01-24T00:22:09;100259.28;;;0.44;85.83
57779;BME280;43608;49.486;9.640;2023-01-24T00:22:40;100262.88;;;0.46;85.98
57779;BME280;43608;49.486;9.640;2023-01-24T00:23:10;100198.13;;;0.11;86.04
57779;BME280;43608;49.486;9.640;2023-01-24T00:23:46;100250.34;;;0.41;85.81
57779;BME280;43608;49.486;9.640;2023-01-24T00:24:17;100240.81;;;0.41;85.90
57779;BME280;43608;49.486;9.640;2023-01-24T00:24:48;100253.94;;;0.43;86.01
57779;BME280;43608;49.486;9.640;2023-01-24T00:25:18;100247.84;;;0.42;85.64
57779;BME280;43608;49.486;9.640;2023-01-24T00:25:49;100240.44;;;0.35;85.95
57779;BME280;43608;49.486;9.640;2023-01-24T00:26:20;100239.72;;;0.38;85.77
57779;BME280;43608;49.486;9.640;2023-01-24T00:26:51;100254.16;;;0.46;85.84
57779;BME280;43608;49.486;9.640;2023-01-24T00:27:21;100252.16;;;0.42;86.10
57779;BME280;43608;49.486;9.640;2023-01-24T00:27:52;100247.75;;;0.41;85.81
57779;BME280;43608;49.486;9.640;2023-01-24T00:28:22;100243.41;;;0.41;86.06
57779;BME280;43608;49.486;9.640;2023-01-24T00:28:53;100243.34;;;0.40;85.82
57779;BME280;43608;49.486;9.640;2023-01-24T00:29:23;100247.84;;;0.42;85.96
57779;BME280;43608;49.486;9.640;2023-01-24T00:29:53;100252.34;;;0.45;85.84
57779;BME280;43608;49.486;9.640;2023-01-24T00:30:24;100235.22;;;0.35;85.75
57779;BME280;43608;49.486;9.640;2023-01-24T00:30:54;100238.66;;;0.34;86.01
57779;BME280;43608;49.486;9.640;2023-01-24T00:31:25;100238.53;;;0.32;85.82
57779;BME280;43608;49.486;9.640;2023-01-24T00:31:55;100240.25;;;0.32;86.17
57779;BME280;43608;49.486;9.640;2023-01-24T00:32:25;100241.34;;;0.36;86.20
57779;BME280;43608;49.486;9.640;2023-01-24T00:32:56;100227.84;;;0.28;85.88
57779;BME280;43608;49.486;9.640;2023-01-24T00:33:26;100235.22;;;0.35;86.07
57779;BME280;43608;49.486;9.640;2023-01-24T00:33:57;100240.53;;;0.37;86.19
57779;BME280;43608;49.486;9.640;2023-01-24T00:34:27;100249.56;;;0.42;86.18
57779;BME280;43608;49.486;9.640;2023-01-24T00:34:57;100254.94;;;0.45;85.85
57779;BME280;43608;49.486;9.640;2023-01-24T00:35:28;100249.66;;;0.43;85.99
57779;BME280;43608;49.486;9.640;2023-01-24T00:35:58;100242.06;;;0.33;85.82
57779;BME280;43608;49.486;9.640;2023-01-24T00:36:29;100247.38;;;0.35;85.83
57779;BME280;43608;49.486;9.640;2023-01-24T00:36:59;100241.25;;;0.34;86.17
57779;BME280;43608;49.486;9.640;2023-01-24T00:37:29;100250.34;;;0.41;86.37
57779;BME280;43608;49.486;9.640;2023-01-24T00:38:00;100255.66;;;0.42;85.99
57779;BME280;43608;49.486;9.640;2023-01-24T00:38:32;100254.88;;;0.43;86.30
57779;BME280;43608;49.486;9.640;2023-01-24T00:39:02;100246.56;;;0.36;86.30
57779;BME280;43608;49.486;9.640;2023-01-24T00:39:33;100257.38;;;0.42;86.16
57779;BME280;43608;49.486;9.640;2023-01-24T00:40:03;100262.69;;;0.43;86.57
57779;BME280;43608;49.486;9.640;2023-01-24T00:40:34;100264.59;;;0.46;86.31
57779;BME280;43608;49.486;9.640;2023-01-24T00:41:05;100231.16;;;0.25;85.89
57779;BME280;43608;49.486;9.640;2023-01-24T00:41:35;100256.66;;;0.44;86.03
57779;BME280;43608;49.486;9.640;2023-01-24T00:42:06;100224.03;;;0.23;86.39
57779;BME280;43608;49.486;9.640;2023-01-24T00:42:36;100245.94;;;0.40;85.94
57779;BME280;43608;49.486;9.640;2023-01-24T00:43:06;100228.94;;;0.31;86.06
57779;BME280;43608;49.486;9.640;2023-01-24T00:43:37;100254.78;;;0.42;86.37
57779;BME280;43608;49.486;9.640;2023-01-24T00:44:07;100230.81;;;0.34;87.46
57779;BME280;43608;49.486;9.640;2023-01-24T00:44:37;100246.03;;;0.41;87.26
57779;BME280;43608;49.486;9.640;2023-01-24T00:45:08;100258.03;;;0.53;86.91
57779;BME280;43608;49.486;9.640;2023-01-24T00:45:39;100253.53;;;0.50;86.88
57779;BME280;43608;49.486;9.640;2023-01-24T00:46:09;100250.13;;;0.51;87.44
57779;BME280;43608;49.486;9.640;2023-01-24T00:46:40;100263.72;;;0.60;87.57
57779;BME280;43608;49.486;9.640;2023-01-24T00:47:11;100259.31;;;0.59;87.62
57779;BME280;43608;49.486;9.640;2023-01-24T00:47:41;100250.38;;;0.56;87.57
57779;BME280;43608;49.486;9.640;2023-01-24T00:48:12;100269.50;;;0.70;87.42
57779;BME280;43608;49.486;9.640;2023-01-24T00:48:43;100250.13;;;0.66;86.79
57779;BME280;43608;49.486;9.640;2023-01-24T00:49:13;100252.66;;;0.64;86.50
57779;BME280;43608;49.486;9.640;2023-01-24T00:49:44;100259.06;;;0.70;86.45
57779;BME280;43608;49.486;9.640;2023-01-24T00:50:14;100260.56;;;0.66;86.59
57779;BME280;43608;49.486;9.640;2023-01-24T00:50:44;100236.28;;;0.52;86.17
57779;BME280;43608;49.486;9.640;2023-01-24T00:51:15;100248.22;;;0.63;86.13
57779;BME280;43608;49.486;9.640;2023-01-24T00:51:45;100250.59;;;0.59;86.14
57779;BME280;43608;49.486;9.640;2023-01-24T00:52:16;100255.56;;;0.69;86.08
57779;BME280;43608;49.486;9.640;2023-01-24T00:52:47;100238.44;;;0.59;86.16
57779;BME280;43608;49.486;9.640;2023-01-24T00:53:18;100244.03;;;0.65;86.43
57779;BME280;43608;49.486;9.640;2023-01-24T00:53:49;100246.63;;;0.65;86.06
57779;BME280;43608;49.486;9.640;2023-01-24T00:54:20;100248.44;;;0.67;86.08
57779;BME280;43608;49.486;9.640;2023-01-24T00:54:50;100240.94;;;0.58;85.82
57779;BME280;43608;49.486;9.640;2023-01-24T00:55:20;100251.06;;;0.67;85.74
57779;BME280;43608;49.486;9.640;2023-01-24T00:55:51;100261.84;;;0.73;85.90
57779;BME280;43608;49.486;9.640;2023-01-24T00:56:22;100266.97;;;0.71;86.43
57779;BME280;43608;49.486;9.640;2023-01-24T00:56:52;100246.44;;;0.62;86.19
57779;BME280;43608;49.486;9.640;2023-01-24T00:57:22;100249.25;;;0.65;86.52
57779;BME280;43608;49.486;9.640;2023-01-24T00:57:54;100270.84;;;0.78;86.20
57779;BME280;43608;49.486;9.640;2023-01-24T00:58:24;100260.16;;;0.73;86.00
57779;BME280;43608;49.486;9.640;2023-01-24T00:58:55;100258.16;;;0.69;86.01
57779;BME280;43608;49.486;9.640;2023-01-24T00:59:25;100267.06;;;0.73;85.68
57779;BME280;43608;49.486;9.640;2023-01-24T00:59:55;100261.75;;;0.71;85.85
57779;BME280;43608;49.486;9.640;2023-01-24T01:00:26;100272.47;;;0.76;85.66
57779;BME280;43608;49.486;9.640;2023-01-24T01:00:56;100250.59;;;0.59;85.69
57779;BME280;43608;49.486;9.640;2023-01-24T01:01:28;100260.31;;;0.61;85.64
57779;BME280;43608;49.486;9.640;2023-01-24T01:01:58;100258.66;;;0.63;85.38
57779;BME280;43608;49.486;9.640;2023-01-24T01:02:29;100279.13;;;0.71;85.63
57779;BME280;43608;49.486;9.640;2023-01-24T01:02:59;100280.22;;;0.74;85.34
57779;BME280;43608;49.486;9.640;2023-01-24T01:03:30;100273.81;;;0.69;85.57
57779;BME280;43608;49.486;9.640;2023-01-24T01:04:01;100271.00;;;0.66;85.55
57779;BME280;43608;49.486;9.640;2023-01-24T01:04:31;100271.81;;;0.65;85.58
57779;BME280;43608;49.486;9.640;2023-01-24T01:05:01;100267.41;;;0.64;85.04
57779;BME280;43608;49.486;9.640;2023-01-24T01:05:32;100270.13;;;0.65;85.59
57779;BME280;43608;49.486;9.640;2023-01-24T01:06:14;100281.53;;;0.68;85.14
57779;BME280;43608;49.486;9.640;2023-01-24T01:06:45;100275.03;;;0.61;85.34
57779;BME280;43608;49.486;9.640;2023-01-24T01:07:16;100262.72;;;0.58;85.46
57779;BME280;43608;49.486;9.640;2023-01-24T01:07:47;100281.19;;;0.61;85.39
57779;BME280;43608;49.486;9.640;2023-01-24T01:08:17;100256.22;;;0.52;85.45
57779;BME280;43608;49.486;9.640;2023-01-24T01:08:47;100273.22;;;0.60;85.45
57779;BME280;43608;49.486;9.640;2023-01-24T01:09:18;100264.03;;;0.52;85.57
57779;BME280;43608;49.486;9.640;2023-01-24T01:09:48;100280.97;;;0.58;85.49
57779;BME280;43608;49.486;9.640;2023-01-24T01:10:18;100271.97;;;0.53;85.45
57779;BME280;43608;49.486;9.640;2023-01-24T01:10:50;100280.09;;;0.58;85.98
57779;BME280;43608;49.486;9.640;2023-01-24T01:11:21;100269.19;;;0.50;85.74
57779;BME280;43608;49.486;9.640;2023-01-24T01:11:51;100258.34;;;0.44;85.75
57779;BME280;43608;49.486;9.640;2023-01-24T01:12:21;100265.75;;;0.51;85.91
57779;BME280;43608;49.486;9.640;2023-01-24T01:12:52;100270.69;;;0.46;85.89
57779;BME280;43608;49.486;9.640;2023-01-24T01:13:22;100279.78;;;0.53;85.89
57779;BME280;43608;49.486;9.640;2023-01-24T01:13:56;100283.50;;;0.57;85.75
57779;BME280;43608;49.486;9.640;2023-01-24T01:14:26;100277.00;;;0.50;85.80
57779;BME280;43608;49.486;9.640;2023-01-24T01:14:57;100282.59;;;0.56;86.04
57779;BME280;43608;49.486;9.640;2023-01-24T01:15:28;100287.03;;;0.57;85.73
57779;BME280;43608;49.486;9.640;2023-01-24T01:16:13;100261.88;;;0.44;86.01
57779;BME280;43608;49.486;9.640;2023-01-24T01:16:46;100283.09;;;0.51;86.17
57779;BME280;43608;49.486;9.640;2023-01-24T01:17:16;100273.50;;;0.49;86.17
57779;BME280;43608;49.486;9.640;2023-01-24T01:17:46;100264.50;;;0.44;86.23
57779;BME280;43608;49.486;9.640;2023-01-24T01:18:17;100278.72;;;0.49;86.13
57779;BME280;43608;49.486;9.640;2023-01-24T01:18:49;100272.41;;;0.46;86.39
57779;BME280;43608;49.486;9.640;2023-01-24T01:19:19;100278.72;;;0.49;85.97
57779;BME280;43608;49.486;9.640;2023-01-24T01:19:53;100278.72;;;0.49;85.85
57779;BME280;43608;49.486;9.640;2023-01-24T01:20:24;100278.00;;;0.52;85.90
57779;BME280;43608;49.486;9.640;2023-01-24T01:20:55;100288.31;;;0.51;86.11
57779;BME280;43608;49.486;9.640;2023-01-24T01:21:25;100287.53;;;0.52;86.18
57779;BME280;43608;49.486;9.640;2023-01-24T01:21:56;100277.63;;;0.46;86.23
57779;BME280;43608;49.486;9.640;2023-01-24T01:22:26;100281.34;;;0.49;86.06
57779;BME280;43608;49.486;9.640;2023-01-24T01:22:56;100269.72;;;0.44;86.08
57779;BME280;43608;49.486;9.640;2023-01-24T01:23:27;100273.22;;;0.45;86.25
57779;BME280;43608;49.486;9.640;2023-01-24T01:23:58;100285.53;;;0.47;86.37
57779;BME280;43608;49.486;9.640;2023-01-24T01:24:28;100275.03;;;0.46;85.82
57779;BME280;43608;49.486;9.640;2023-01-24T01:24:58;100287.44;;;0.50;86.23
57779;BME280;43608;49.486;9.640;2023-01-24T01:25:29;100272.81;;;0.39;86.07
57779;BME280;43608;49.486;9.640;2023-01-24T01:26:05;100291.94;;;0.53;86.10
57779;BME280;43608;49.486;9.640;2023-01-24T01:26:35;100291.84;;;0.51;86.34
57779;BME280;43608;49.486;9.640;2023-01-24T01:27:06;100282.94;;;0.47;86.09
57779;BME280;43608;49.486;9.640;2023-01-24T01:27:36;100282.41;;;0.53;86.41
57779;BME280;43608;49.486;9.640;2023-01-24T01:28:07;100286.56;;;0.49;86.06
57779;BME280;43608;49.486;9.640;2023-01-24T01:28:37;100277.63;;;0.46;86.18
57779;BME280;43608;49.486;9.640;2023-01-24T01:29:07;100287.44;;;0.50;86.36
57779;BME280;43608;49.486;9.640;2023-01-24T01:29:38;100269.81;;;0.46;86.52
57779;BME280;43608;49.486;9.640;2023-01-24T01:30:09;100286.63;;;0.51;86.13
57779;BME280;43608;49.486;9.640;2023-01-24T01:30:39;100270.59;;;0.45;86.60
57779;BME280;43608;49.486;9.640;2023-01-24T01:31:09;100285.84;;;0.52;86.66
57779;BME280;43608;49.486;9.640;2023-01-24T01:31:40;100276.69;;;0.45;86.04
57779;BME280;43608;49.486;9.640;2023-01-24T01:32:10;100281.41;;;0.51;86.61
57779;BME280;43608;49.486;9.640;2023-01-24T01:32:41;100259.78;;;0.39;86.31
57779;BME280;43608;49.486;9.640;2023-01-24T01:33:11;100278.59;;;0.48;86.50
57779;BME280;43608;49.486;9.640;2023-01-24T01:33:45;100278.59;;;0.48;86.83
57779;BME280;43608;49.486;9.640;2023-01-24T01:34:16;100286.63;;;0.51;86.58
57779;BME280;43608;49.486;9.640;2023-01-24T01:34:47;100281.22;;;0.48;86.53
57779;BME280;43608;49.486;9.640;2023-01-24T01:35:17;100262.31;;;0.37;86.39
57779;BME280;43608;49.486;9.640;2023-01-24T01:35:49;100283.09;;;0.51;86.60
57779;BME280;43608;49.486;9.640;2023-01-24T01:36:19;100270.41;;;0.42;86.46
57779;BME280;43608;49.486;9.640;2023-01-24T01:36:49;100283.94;;;0.49;86.42
57779;BME280;43608;49.486;9.640;2023-01-24T01:37:20;100280.41;;;0.49;86.68
57779;BME280;43608;49.486;9.640;2023-01-24T01:37:50;100277.63;;;0.46;86.29
57779;BME280;43608;49.486;9.640;2023-01-24T01:38:21;100252.50;;;0.33;86.42
57779;BME280;43608;49.486;9.640;2023-01-24T01:38:54;100218.06;;;0.10;86.27
57779;BME280;43608;49.486;9.640;2023-01-24T01:39:24;100279.53;;;0.48;86.69
57779;BME280;43608;49.486;9.640;2023-01-24T01:39:55;100259.59;;;0.36;86.33
57779;BME280;43608;49.486;9.640;2023-01-24T01:40:25;100284.53;;;0.45;86.58
57779;BME280;43608;49.486;9.640;2023-01-24T01:40:56;100284.81;;;0.50;86.24
57779;BME280;43608;49.486;9.640;2023-01-24T01:41:27;100267.50;;;0.37;86.60
57779;BME280;43608;49.486;9.640;2023-01-24T01:41:57;100288.06;;;0.46;86.51
57779;BME280;43608;49.486;9.640;2023-01-24T01:42:44;100280.25;;;0.46;86.64
57779;BME280;43608;49.486;9.640;2023-01-24T01:43:17;100283.81;;;0.48;86.76
57779;BME280;43608;49.486;9.640;2023-01-24T01:43:48;100284.75;;;0.48;86.33
57779;BME280;43608;49.486;9.640;2023-01-24T01:44:41;100261.28;;;0.35;86.80
57779;BME280;43608;49.486;9.640;2023-01-24T01:45:34;100277.31;;;0.41;86.46
57779;BME280;43608;49.486;9.640;2023-01-24T01:46:20;100271.13;;;0.39;86.72
57779;BME280;43608;49.486;9.640;2023-01-24T01:46:53;100273.13;;;0.43;87.01
57779;BME280;43608;49.486;9.640;2023-01-24T01:47:34;100265.72;;;0.36;86.60
57779;BME280;43608;49.486;9.640;2023-01-24T01:48:32;100277.41;;;0.43;86.94
57779;BME280;43608;49.486;9.640;2023-01-24T01:49:04;100261.91;;;0.31;86.81
57779;BME280;43608;49.486;9.640;2023-01-24T01:49:36;100276.44;;;0.41;86.92
57779;BME280;43608;49.486;9.640;2023-01-24T01:50:42;100276.34;;;0.39;86.80
57779;BME280;43608;49.486;9.640;2023-01-24T01:51:16;100282.75;;;0.44;86.87
57779;BME280;43608;49.486;9.640;2023-01-24T01:51:50;100281.44;;;0.38;86.90
57779;BME280;43608;49.486;9.640;2023-01-24T01:52:25;100282.75;;;0.44;86.80
57779;BME280;43608;49.486;9.640;2023-01-24T01:52:58;100267.44;;;0.36;87.02
57779;BME280;43608;49.486;9.640;2023-01-24T01:53:33;100251.31;;;0.28;87.26
57779;BME280;43608;49.486;9.640;2023-01-24T01:54:09;100262.84;;;0.31;86.62
57779;BME280;43608;49.486;9.640;2023-01-24T01:54:42;100260.00;;;0.28;86.99
57779;BME280;43608;49.486;9.640;2023-01-24T01:55:18;100282.53;;;0.41;87.13
57779;BME280;43608;49.486;9.640;2023-01-24T01:55:53;100281.56;;;0.39;87.28
57779;BME280;43608;49.486;9.640;2023-01-24T01:56:32;100262.53;;;0.27;87.12
57779;BME280;43608;49.486;9.640;2023-01-24T01:57:09;100282.47;;;0.40;87.19
57779;BME280;43608;49.486;9.640;2023-01-24T01:57:43;100292.97;;;0.41;86.89
57779;BME280;43608;49.486;9.640;2023-01-24T01:58:14;100300.09;;;0.44;87.16
57779;BME280;43608;49.486;9.640;2023-01-24T01:58:46;100287.50;;;0.37;86.92
57779;BME280;43608;49.486;9.640;2023-01-24T01:59:20;100278.47;;;0.31;87.33
57779;BME280;43608;49.486;9.640;2023-01-24T01:59:57;100294.50;;;0.38;86.99
57779;BME280;43608;49.486;9.640;2023-01-24T02:00:28;100287.59;;;0.38;87.17
57779;BME280;43608;49.486;9.640;2023-01-24T02:00:59;100289.47;;;0.41;87.21
57779;BME280;43608;49.486;9.640;2023-01-24T02:01:30;100279.84;;;0.40;86.71
57779;BME280;43608;49.486;9.640;2023-01-24T02:02:02;100274.06;;;0.30;86.69
57779;BME280;43608;49.486;9.640;2023-01-24T02:02:34;100281.28;;;0.35;86.74
57779;BME280;43608;49.486;9.640;2023-01-24T02:03:09;100292.97;;;0.41;86.66
57779;BME280;43608;49.486;9.640;2023-01-24T02:04:13;100298.09;;;0.40;86.90
57779;BME280;43608;49.486;9.640;2023-01-24T02:04:47;100300.91;;;0.43;86.70
57779;BME280;43608;49.486;9.640;2023-01-24T02:05:21;100280.25;;;0.32;86.87
57779;BME280;43608;49.486;9.640;2023-01-24T02:05:54;100292.88;;;0.40;86.87
57779;BME280;43608;49.486;9.640;2023-01-24T02:06:50;100282.06;;;0.33;86.89
57779;BME280;43608;49.486;9.640;2023-01-24T02:07:30;100302.69;;;0.44;86.90
57779;BME280;43608;49.486;9.640;2023-01-24T02:08:03;100279.28;;;0.30;86.98
57779;BME280;43608;49.486;9.640;2023-01-24T02:08:35;100297.31;;;0.41;86.97
57779;BME280;43608;49.486;9.640;2023-01-24T02:09:07;100314.06;;;0.44;86.87
57779;BME280;43608;49.486;9.640;2023-01-24T02:09:41;100311.53;;;0.46;87.21
57779;BME280;43608;49.486;9.640;2023-01-24T02:10:12;100294.31;;;0.35;86.88
57779;BME280;43608;49.486;9.640;2023-01-24T02:10:43;100317.66;;;0.46;86.85
57779;BME280;43608;49.486;9.640;2023-01-24T02:11:32;100305.22;;;0.42;86.98
57779;BME280;43608;49.486;9.640;2023-01-24T02:12:12;100300.81;;;0.41;86.62
57779;BME280;43608;49.486;9.640;2023-01-24T02:12:46;100320.16;;;0.45;86.97
57779;BME280;43608;49.486;9.640;2023-01-24T02:13:17;100317.56;;;0.45;86.96
57779;BME280;43608;49.486;9.640;2023-01-24T02:13:48;100320.25;;;0.46;86.63
57779;BME280;43608;49.486;9.640;2023-01-24T02:14:39;100321.59;;;0.40;87.04
57779;BME280;43608;49.486;9.640;2023-01-24T02:15:28;100294.00;;;0.30;86.78
57779;BME280;43608;49.486;9.640;2023-01-24T02:16:17;100293.13;;;0.29;86.62
57779;BME280;43608;49.486;9.640;2023-01-24T02:16:47;100314.66;;;0.40;86.94
57779;BME280;43608;49.486;9.640;2023-01-24T02:17:19;100288.00;;;0.31;86.60
57779;BME280;43608;49.486;9.640;2023-01-24T02:17:50;100300.22;;;0.32;86.90
57779;BME280;43608;49.486;9.640;2023-01-24T02:18:21;100302.03;;;0.33;86.76
57779;BME280;43608;49.486;9.640;2023-01-24T02:18:51;100314.56;;;0.39;87.01
57779;BME280;43608;49.486;9.640;2023-01-24T02:21:13;100314.84;;;0.43;86.62
57779;BME280;43608;49.486;9.640;2023-01-24T02:21:46;100311.31;;;0.43;86.75
57779;BME280;43608;49.486;9.640;2023-01-24T02:23:47;100327.81;;;0.42;86.79
57779;BME280;43608;49.486;9.640;2023-01-24T02:24:25;100323.56;;;0.44;86.86
57779;BME280;43608;49.486;9.640;2023-01-24T02:25:11;100305.28;;;0.29;86.73
57779;BME280;43608;49.486;9.640;2023-01-24T02:26:20;100321.75;;;0.43;86.93
57779;BME280;43608;49.486;9.640;2023-01-24T02:26:51;100305.34;;;0.30;86.61
57779;BME280;43608;49.486;9.640;2023-01-24T02:27:21;100325.91;;;0.39;86.90
57779;BME280;43608;49.486;9.640;2023-01-24T02:27:52;100303.38;;;0.26;86.72
57779;BME280;43608;49.486;9.640;2023-01-24T02:28:23;100328.31;;;0.36;87.03
57779;BME280;43608;49.486;9.640;2023-01-24T02:29:00;100323.56;;;0.44;86.72
57779;BME280;43608;49.486;9.640;2023-01-24T02:29:32;100306.34;;;0.32;86.68
57779;BME280;43608;49.486;9.640;2023-01-24T02:30:03;100315.47;;;0.39;87.08
57779;BME280;43608;49.486;9.640;2023-01-24T02:30:35;100320.88;;;0.42;87.15
57779;BME280;43608;49.486;9.640;2023-01-24T02:31:06;100326.81;;;0.40;86.54
57779;BME280;43608;49.486;9.640;2023-01-24T02:31:58;100332.81;;;0.39;87.25
57779;BME280;43608;49.486;9.640;2023-01-24T02:32:29;100333.81;;;0.41;87.06
57779;BME280;43608;49.486;9.640;2023-01-24T02:33:11;100332.09;;;0.41;86.67
57779;BME280;43608;49.486;9.640;2023-01-24T02:33:42;100340.84;;;0.42;86.81
57779;BME280;43608;49.486;9.640;2023-01-24T02:34:12;100330.22;;;0.39;87.09
57779;BME280;43608;49.486;9.640;2023-01-24T02:34:43;100326.50;;;0.35;86.70
57779;BME280;43608;49.486;9.640;2023-01-24T02:35:28;100330.03;;;0.36;87.10
57779;BME280;43608;49.486;9.640;2023-01-24T02:36:44;100313.97;;;0.29;87.18
57779;BME280;43608;49.486;9.640;2023-01-24T02:37:15;100332.63;;;0.36;87.22
57779;BME280;43608;49.486;9.640;2023-01-24T02:37:46;100311.09;;;0.25;87.13
57779;BME280;43608;49.486;9.640;2023-01-24T02:38:21;100337.22;;;0.40;86.86
57779;BME280;43608;49.486;9.640;2023-01-24T02:39:04;100321.81;;;0.29;86.99
57779;BME280;43608;49.486;9.640;2023-01-24T02:39:50;100338.13;;;0.40;87.47
57779;BME280;43608;49.486;9.640;2023-01-24T02:40:24;100323.63;;;0.30;87.17
57779;BME280;43608;49.486;9.640;2023-01-24T02:40:58;100340.63;;;0.39;87.49
57779;BME280;43608;49.486;9.640;2023-01-24T02:41:59;100338.94;;;0.39;87.20
57779;BME280;43608;49.486;9.640;2023-01-24T02:42:35;100338.81;;;0.38;87.34
57779;BME280;43608;49.486;9.640;2023-01-24T02:43:07;100327.31;;;0.34;87.28
57779;BME280;43608;49.486;9.640;2023-01-24T02:43:41;100330.03;;;0.36;87.12
57779;BME280;43608;49.486;9.640;2023-01-24T02:44:39;100318.09;;;0.26;87.49
57779;BME280;43608;49.486;9.640;2023-01-24T02:45:16;100332.72;;;0.37;87.41
57779;BME280;43608;49.486;9.640;2023-01-24T02:45:49;100334.31;;;0.35;87.32
57779;BME280;43608;49.486;9.640;2023-01-24T02:46:19;100330.81;;;0.35;87.31
57779;BME280;43608;49.486;9.640;2023-01-24T02:46:50;100321.63;;;0.26;87.47
57779;BME280;43608;49.486;9.640;2023-01-24T02:47:20;100335.16;;;0.34;87.23
57779;BME280;43608;49.486;9.640;2023-01-24T02:47:53;100337.13;;;0.38;87.55
57779;BME280;43608;49.486;9.640;2023-01-24T02:48:23;100329.00;;;0.33;87.56
57779;BME280;43608;49.486;9.640;2023-01-24T02:48:54;100349.25;;;0.38;87.27
57779;BME280;43608;49.486;9.640;2023-01-24T02:49:24;100323.53;;;0.29;87.56
57779;BME280;43608;49.486;9.640;2023-01-24T02:49:54;100328.22;;;0.35;87.37
57779;BME280;43608;49.486;9.640;2023-01-24T02:50:27;100327.50;;;0.37;87.53
57779;BME280;43608;49.486;9.640;2023-01-24T02:50:58;100321.91;;;0.31;87.25
57779;BME280;43608;49.486;9.640;2023-01-24T02:51:46;100324.81;;;0.36;87.74
57779;BME280;43608;49.486;9.640;2023-01-24T02:52:35;100283.34;;;0.12;87.40
57779;BME280;43608;49.486;9.640;2023-01-24T02:53:25;100306.88;;;0.27;87.13
57779;BME280;43608;49.486;9.640;2023-01-24T02:54:01;100324.91;;;0.37;87.65
57779;BME280;43608;49.486;9.640;2023-01-24T02:54:31;100326.63;;;0.37;87.37
57779;BME280;43608;49.486;9.640;2023-01-24T02:55:02;100313.88;;;0.28;87.28
57779;BME280;43608;49.486;9.640;2023-01-24T02:55:33;100335.63;;;0.42;87.42
57779;BME280;43608;49.486;9.640;2023-01-24T02:56:06;100331.22;;;0.41;87.05
57779;BME280;43608;49.486;9.640;2023-01-24T02:56:55;100312.38;;;0.31;87.28
57779;BME280;43608;49.486;9.640;2023-01-24T02:57:44;100322.28;;;0.37;87.02
57779;BME280;43608;49.486;9.640;2023-01-24T02:58:34;100311.38;;;0.29;87.31
57779;BME280;43608;49.486;9.640;2023-01-24T02:59:04;100315.19;;;0.35;86.89
57779;BME280;43608;49.486;9.640;2023-01-24T02:59:34;100331.22;;;0.41;87.24
57779;BME280;43608;49.486;9.640;2023-01-24T03:00:06;100331.00;;;0.38;87.32